sensor_id;sensor_type;location;lat;lon;timestamp;pressure;altitude;pressure_sealevel;temperature;humidity
62111;BME280;48102;47.526;19.072;2023-02-13T04:41:22;102601.75;;;-3.76;100.00
62111;BME280;48102;47.526;19.072;2023-02-13T04:44:26;102596.28;;;-3.84;100.00
62111;BME280;48102;47.526;19.072;2023-02-13T04:47:28;102595.91;;;-3.92;100.00
62111;BME280;48102;47.526;19.072;2023-02-13T04:50:31;102590.75;;;-3.92;100.00
62111;BME280;48102;47.526;19.072;2023-02-13T04:53:34;102592.56;;;-3.89;100.00
62111;BME280;48102;47.526;19.072;2023-02-13T04:56:36;102595.31;;;-3.86;100.00
62111;BME280;48102;47.526;19.072;2023-02-13T04:59:39;102586.75;;;-3.85;100.00
62111;BME280;48102;47.526;19.072;2023-02-13T05:02:43;102584.47;;;-3.79;100.00
62111;BME280;48102;47.526;19.072;2023-02-13T05:05:47;102596.00;;;-3.71;100.00
62111;BME280;48102;47.526;19.072;2023-02-13T05:08:50;102589.94;;;-3.71;100.00
62111;BME280;48102;47.526;19.072;2023-02-13T05:11:56;102585.75;;;-3.69;100.00
62111;BME280;48102;47.526;19.072;2023-02-13T05:14:59;102583.19;;;-3.69;100.00
62111;BME280;48102;47.526;19.072;2023-02-13T05:18:02;102576.28;;;-3.70;100.00
62111;BME280;48102;47.526;19.072;2023-02-13T05:21:05;102576.31;;;-3.69;100.00
62111;BME280;48102;47.526;19.072;2023-02-13T05:24:27;102570.34;;;-3.68;100.00
62111;BME280;48102;47.526;19.072;2023-02-13T05:27:30;102566.09;;;-3.67;100.00
62111;BME280;48102;47.526;19.072;2023-02-13T05:30:32;102565.50;;;-3.62;100.00
62111;BME280;48102;47.526;19.072;2023-02-13T05:33:36;102573.31;;;-3.59;100.00
62111;BME280;48102;47.526;19.072;2023-02-13T05:36:38;102564.72;;;-3.59;100.00
62111;BME280;48102;47.526;19.072;2023-02-13T05:39:42;102568.19;;;-3.59;100.00
62111;BME280;48102;47.526;19.072;2023-02-13T05:42:44;102580.28;;;-3.58;100.00
62111;BME280;48102;47.526;19.072;2023-02-13T05:45:47;102575.13;;;-3.58;100.00
62111;BME280;48102;47.526;19.072;2023-02-13T05:48:51;102576.94;;;-3.55;100.00
62111;BME280;48102;47.526;19.072;2023-02-13T05:51:54;102583.94;;;-3.53;100.00
62111;BME280;48102;47.526;19.072;2023-02-13T05:54:56;102585.81;;;-3.48;100.00
62111;BME280;48102;47.526;19.072;2023-02-13T05:57:59;102584.94;;;-3.49;100.00
62111;BME280;48102;47.526;19.072;2023-02-13T06:01:03;102585.00;;;-3.47;100.00
62111;BME280;48102;47.526;19.072;2023-02-13T06:04:06;102591.22;;;-3.42;100.00
62111;BME280;48102;47.526;19.072;2023-02-13T06:07:09;102593.31;;;-3.34;100.00
62111;BME280;48102;47.526;19.072;2023-02-13T06:10:12;102603.84;;;-3.29;100.00
62111;BME280;48102;47.526;19.072;2023-02-13T06:13:16;102607.72;;;-3.19;100.00
62111;BME280;48102;47.526;19.072;2023-02-13T06:16:19;102610.19;;;-3.01;100.00
62111;BME280;48102;47.526;19.072;2023-02-13T06:19:22;102616.44;;;-2.75;100.00
62111;BME280;48102;47.526;19.072;2023-02-13T06:22:25;102615.94;;;-2.67;100.00
62111;BME280;48102;47.526;19.072;2023-02-13T06:25:29;102620.44;;;-2.40;100.00
62111;BME280;48102;47.526;19.072;2023-02-13T06:28:34;102630.56;;;-2.24;100.00
62111;BME280;48102;47.526;19.072;2023-02-13T06:31:37;102623.06;;;-2.16;100.00
62111;BME280;48102;47.526;19.072;2023-02-13T06:34:40;102620.97;;;-2.04;100.00
62111;BME280;48102;47.526;19.072;2023-02-13T06:37:43;102623.63;;;-2.03;100.00
62111;BME280;48102;47.526;19.072;2023-02-13T06:40:46;102628.38;;;-1.91;100.00
62111;BME280;48102;47.526;19.072;2023-02-13T06:43:50;102628.62;;;-1.85;100.00
62111;BME280;48102;47.526;19.072;2023-02-13T06:46:53;102636.00;;;-1.71;100.00
62111;BME280;48102;47.526;19.072;2023-02-13T06:49:56;102630.63;;;-1.54;100.00
62111;BME280;48102;47.526;19.072;2023-02-13T06:53:00;102629.50;;;-1.38;100.00
62111;BME280;48102;47.526;19.072;2023-02-13T06:56:03;102625.84;;;-1.19;100.00
62111;BME280;48102;47.526;19.072;2023-02-13T06:59:09;102619.69;;;-0.97;100.00
62111;BME280;48102;47.526;19.072;2023-02-13T07:02:12;102624.75;;;-0.74;100.00
62111;BME280;48102;47.526;19.072;2023-02-13T07:05:15;102631.44;;;-0.56;100.00
62111;BME280;48102;47.526;19.072;2023-02-13T07:08:18;102636.25;;;-0.39;100.00
62111;BME280;48102;47.526;19.072;2023-02-13T07:11:23;102631.47;;;-0.27;100.00
62111;BME280;48102;47.526;19.072;2023-02-13T07:14:26;102638.06;;;-0.10;100.00
62111;BME280;48102;47.526;19.072;2023-02-13T07:17:29;102641.66;;;-0.05;100.00
62111;BME280;48102;47.526;19.072;2023-02-13T07:20:33;102644.75;;;0.11;100.00
62111;BME280;48102;47.526;19.072;2023-02-13T07:23:36;102639.22;;;0.29;100.00
62111;BME280;48102;47.526;19.072;2023-02-13T07:26:39;102639.59;;;0.42;100.00
62111;BME280;48102;47.526;19.072;2023-02-13T07:29:42;102642.47;;;0.52;100.00
62111;BME280;48102;47.526;19.072;2023-02-13T07:32:45;102640.41;;;0.70;100.00
62111;BME280;48102;47.526;19.072;2023-02-13T07:35:49;102631.28;;;0.84;100.00
62111;BME280;48102;47.526;19.072;2023-02-13T07:38:52;102637.00;;;1.04;100.00
62111;BME280;48102;47.526;19.072;2023-02-13T07:41:56;102636.59;;;1.22;100.00
62111;BME280;48102;47.526;19.072;2023-02-13T07:45:00;102636.81;;;1.31;100.00
62111;BME280;48102;47.526;19.072;2023-02-13T07:48:07;102654.47;;;1.44;100.00
62111;BME280;48102;47.526;19.072;2023-02-13T07:51:10;102652.12;;;1.55;100.00
62111;BME280;48102;47.526;19.072;2023-02-13T07:54:13;102655.94;;;1.69;100.00
62111;BME280;48102;47.526;19.072;2023-02-13T07:57:16;102654.09;;;2.01;100.00
62111;BME280;48102;47.526;19.072;2023-02-13T08:00:20;102666.59;;;2.18;100.00
62111;BME280;48102;47.526;19.072;2023-02-13T08:03:23;102657.34;;;2.31;100.00
62111;BME280;48102;47.526;19.072;2023-02-13T08:06:26;102654.94;;;2.40;100.00
62111;BME280;48102;47.526;19.072;2023-02-13T08:09:32;102654.84;;;2.37;100.00
62111;BME280;48102;47.526;19.072;2023-02-13T08:12:53;102644.69;;;2.49;100.00
62111;BME280;48102;47.526;19.072;2023-02-13T08:15:56;102649.81;;;2.44;100.00
62111;BME280;48102;47.526;19.072;2023-02-13T08:18:59;102644.38;;;2.76;100.00
62111;BME280;48102;47.526;19.072;2023-02-13T08:22:03;102626.81;;;3.63;99.31
62111;BME280;48102;47.526;19.072;2023-02-13T08:25:06;102641.38;;;4.09;90.07
62111;BME280;48102;47.526;19.072;2023-02-13T08:28:09;102633.91;;;3.73;91.49
62111;BME280;48102;47.526;19.072;2023-02-13T08:31:12;102631.09;;;3.61;96.54
62111;BME280;48102;47.526;19.072;2023-02-13T08:34:15;102627.41;;;3.48;95.37
62111;BME280;48102;47.526;19.072;2023-02-13T08:37:18;102630.97;;;3.53;96.03
62111;BME280;48102;47.526;19.072;2023-02-13T08:40:22;102633.50;;;3.47;91.10
62111;BME280;48102;47.526;19.072;2023-02-13T08:43:27;102633.63;;;3.56;94.04
62111;BME280;48102;47.526;19.072;2023-02-13T08:46:30;102632.19;;;3.75;96.43
62111;BME280;48102;47.526;19.072;2023-02-13T08:49:33;102631.53;;;3.90;88.50
62111;BME280;48102;47.526;19.072;2023-02-13T08:52:37;102633.53;;;4.06;90.32
62111;BME280;48102;47.526;19.072;2023-02-13T08:55:39;102634.53;;;4.16;84.97
62111;BME280;48102;47.526;19.072;2023-02-13T08:58:43;102631.97;;;4.19;84.09
62111;BME280;48102;47.526;19.072;2023-02-13T09:01:45;102637.19;;;4.19;86.02
62111;BME280;48102;47.526;19.072;2023-02-13T09:04:48;102630.47;;;4.39;85.07
62111;BME280;48102;47.526;19.072;2023-02-13T09:07:51;102624.59;;;4.57;84.79
62111;BME280;48102;47.526;19.072;2023-02-13T09:10:57;102627.34;;;4.69;80.62
62111;BME280;48102;47.526;19.072;2023-02-13T09:14:01;102631.81;;;4.81;76.63
62111;BME280;48102;47.526;19.072;2023-02-13T09:17:19;102625.03;;;4.98;79.05
62111;BME280;48102;47.526;19.072;2023-02-13T09:20:22;102625.97;;;5.05;74.62
62111;BME280;48102;47.526;19.072;2023-02-13T09:23:26;102623.37;;;5.08;76.98
62111;BME280;48102;47.526;19.072;2023-02-13T09:26:28;102627.00;;;5.19;75.64
62111;BME280;48102;47.526;19.072;2023-02-13T09:29:31;102634.00;;;5.25;74.14
62111;BME280;48102;47.526;19.072;2023-02-13T09:32:36;102626.13;;;5.20;75.17
62111;BME280;48102;47.526;19.072;2023-02-13T09:35:41;102621.75;;;5.19;74.54
62111;BME280;48102;47.526;19.072;2023-02-13T09:38:53;102627.97;;;5.32;74.64
62111;BME280;48102;47.526;19.072;2023-02-13T09:41:57;102620.88;;;5.20;75.54
62111;BME280;48102;47.526;19.072;2023-02-13T09:45:04;102627.97;;;5.34;74.41
62111;BME280;48102;47.526;19.072;2023-02-13T09:48:17;102620.13;;;5.32;76.91
62111;BME280;48102;47.526;19.072;2023-02-13T09:51:21;102619.38;;;5.45;77.51
62111;BME280;48102;47.526;19.072;2023-02-13T09:54:27;102621.97;;;5.45;73.44
62111;BME280;48102;47.526;19.072;2023-02-13T09:57:35;102618.47;;;5.43;75.64
62111;BME280;48102;47.526;19.072;2023-02-13T10:00:44;102612.47;;;5.57;76.35
62111;BME280;48102;47.526;19.072;2023-02-13T10:07:34;102606.59;;;5.90;78.18
62111;BME280;48102;47.526;19.072;2023-02-13T10:10:50;102605.84;;;6.06;74.85
62111;BME280;48102;47.526;19.072;2023-02-13T10:14:00;102595.44;;;6.18;73.04
62111;BME280;48102;47.526;19.072;2023-02-13T10:17:13;102586.75;;;6.28;75.07
62111;BME280;48102;47.526;19.072;2023-02-13T10:20:37;102592.06;;;6.53;73.74
62111;BME280;48102;47.526;19.072;2023-02-13T10:23:48;102585.97;;;6.65;71.84
62111;BME280;48102;47.526;19.072;2023-02-13T10:26:55;102583.34;;;6.65;68.52
62111;BME280;48102;47.526;19.072;2023-02-13T10:33:27;102586.03;;;6.83;68.28
62111;BME280;48102;47.526;19.072;2023-02-13T10:36:36;102577.31;;;6.87;64.82
62111;BME280;48102;47.526;19.072;2023-02-13T10:39:45;102572.94;;;6.88;64.65
62111;BME280;48102;47.526;19.072;2023-02-13T10:43:18;102559.81;;;6.77;63.86
62111;BME280;48102;47.526;19.072;2023-02-13T10:53:48;102555.47;;;6.93;68.08
62111;BME280;48102;47.526;19.072;2023-02-13T10:57:20;102550.22;;;7.10;68.06
62111;BME280;48102;47.526;19.072;2023-02-13T11:03:43;102540.59;;;7.36;65.69
62111;BME280;48102;47.526;19.072;2023-02-13T11:06:58;102535.31;;;7.50;63.96
62111;BME280;48102;47.526;19.072;2023-02-13T11:10:05;102527.47;;;7.45;63.67
62111;BME280;48102;47.526;19.072;2023-02-13T11:13:20;102517.81;;;7.50;64.90
62111;BME280;48102;47.526;19.072;2023-02-13T11:16:23;102518.69;;;7.63;62.15
62111;BME280;48102;47.526;19.072;2023-02-13T11:19:48;102516.94;;;7.54;62.85
62111;BME280;48102;47.526;19.072;2023-02-13T11:22:55;102508.19;;;7.59;62.62
62111;BME280;48102;47.526;19.072;2023-02-13T11:26:03;102498.53;;;7.76;62.49
62111;BME280;48102;47.526;19.072;2023-02-13T11:29:19;102504.63;;;7.76;62.09
62111;BME280;48102;47.526;19.072;2023-02-13T11:32:27;102503.63;;;8.07;61.98
62111;BME280;48102;47.526;19.072;2023-02-13T11:35:33;102499.25;;;8.07;59.79
62111;BME280;48102;47.526;19.072;2023-02-13T11:38:37;102498.34;;;8.20;60.77
62111;BME280;48102;47.526;19.072;2023-02-13T11:41:41;102491.25;;;8.39;59.73
62111;BME280;48102;47.526;19.072;2023-02-13T11:44:50;102484.22;;;8.43;58.72
62111;BME280;48102;47.526;19.072;2023-02-13T11:47:55;102477.09;;;8.60;59.64
62111;BME280;48102;47.526;19.072;2023-02-13T11:50:58;102476.94;;;8.78;59.57
62111;BME280;48102;47.526;19.072;2023-02-13T11:54:01;102476.84;;;8.89;59.19
62111;BME280;48102;47.526;19.072;2023-02-13T12:00:35;102474.09;;;9.01;56.29
62111;BME280;48102;47.526;19.072;2023-02-13T12:03:42;102471.50;;;9.00;57.28
62111;BME280;48102;47.526;19.072;2023-02-13T12:07:02;102468.03;;;8.93;56.20
62111;BME280;48102;47.526;19.072;2023-02-13T12:10:11;102461.97;;;8.87;57.66
62111;BME280;48102;47.526;19.072;2023-02-13T12:13:34;102463.47;;;9.17;56.92
62111;BME280;48102;47.526;19.072;2023-02-13T12:19:46;102464.47;;;9.02;55.01
62111;BME280;48102;47.526;19.072;2023-02-13T12:23:58;102451.25;;;9.11;56.33
62111;BME280;48102;47.526;19.072;2023-02-13T12:26:39;102454.75;;;9.10;56.82
62111;BME280;48102;47.526;19.072;2023-02-13T12:30:17;102452.00;;;9.19;56.86
62111;BME280;48102;47.526;19.072;2023-02-13T12:40:54;102434.91;;;9.60;56.25
62111;BME280;48102;47.526;19.072;2023-02-13T12:44:50;102420.37;;;9.96;56.36
62111;BME280;48102;47.526;19.072;2023-02-13T12:48:22;102422.38;;;9.79;54.90
62111;BME280;48102;47.526;19.072;2023-02-13T13:22:04;102380.03;;;9.93;58.18
62111;BME280;48102;47.526;19.072;2023-02-13T13:25:35;102386.84;;;10.09;57.68
62111;BME280;48102;47.526;19.072;2023-02-13T13:28:45;102377.84;;;10.25;57.90
62111;BME280;48102;47.526;19.072;2023-02-13T13:31:57;102380.16;;;10.45;56.86
62111;BME280;48102;47.526;19.072;2023-02-13T13:35:03;102374.19;;;10.34;56.38
62111;BME280;48102;47.526;19.072;2023-02-13T13:38:11;102381.75;;;9.98;57.34
62111;BME280;48102;47.526;19.072;2023-02-13T13:50:58;102365.53;;;14.53;46.04
62111;BME280;48102;47.526;19.072;2023-02-13T13:57:05;102369.44;;;19.47;35.01
62111;BME280;48102;47.526;19.072;2023-02-13T14:03:23;102366.09;;;23.90;28.56
62111;BME280;48102;47.526;19.072;2023-02-13T14:09:49;102361.56;;;25.97;25.05
62111;BME280;48102;47.526;19.072;2023-02-13T14:15:57;102361.25;;;27.06;25.05
62111;BME280;48102;47.526;19.072;2023-02-13T14:19:01;102364.16;;;28.14;22.99
62111;BME280;48102;47.526;19.072;2023-02-13T14:25:26;102372.00;;;29.32;21.67
62111;BME280;48102;47.526;19.072;2023-02-13T14:28:30;102361.47;;;28.43;22.89
62111;BME280;48102;47.526;19.072;2023-02-13T14:31:41;102366.75;;;28.25;22.98
62111;BME280;48102;47.526;19.072;2023-02-13T14:38:23;102365.44;;;28.00;23.04
62111;BME280;48102;47.526;19.072;2023-02-13T14:45:00;102360.56;;;27.44;23.28
62111;BME280;48102;47.526;19.072;2023-02-13T14:48:10;102364.44;;;27.42;23.82
62111;BME280;48102;47.526;19.072;2023-02-13T14:51:47;102353.38;;;26.19;24.92
62111;BME280;48102;47.526;19.072;2023-02-13T14:54:48;102361.16;;;25.13;26.28
62111;BME280;48102;47.526;19.072;2023-02-13T14:57:59;102363.13;;;22.41;28.75
62111;BME280;48102;47.526;19.072;2023-02-13T15:01:20;102357.78;;;20.43;31.82
62111;BME280;48102;47.526;19.072;2023-02-13T15:05:25;102356.78;;;17.77;35.71
62111;BME280;48102;47.526;19.072;2023-02-13T15:08:10;102361.81;;;15.55;40.24
62111;BME280;48102;47.526;19.072;2023-02-13T15:11:35;102342.59;;;14.52;42.76
62111;BME280;48102;47.526;19.072;2023-02-13T15:14:39;102346.56;;;13.54;44.75
62111;BME280;48102;47.526;19.072;2023-02-13T15:17:42;102345.44;;;12.68;47.38
62111;BME280;48102;47.526;19.072;2023-02-13T15:20:45;102358.47;;;12.06;48.82
62111;BME280;48102;47.526;19.072;2023-02-13T15:23:51;102364.06;;;11.09;51.67
62111;BME280;48102;47.526;19.072;2023-02-13T15:27:01;102362.84;;;10.29;55.52
62111;BME280;48102;47.526;19.072;2023-02-13T15:30:23;102371.78;;;9.57;60.39
62111;BME280;48102;47.526;19.072;2023-02-13T15:33:31;102370.69;;;9.02;64.95
62111;BME280;48102;47.526;19.072;2023-02-13T15:36:39;102373.63;;;8.70;66.73
62111;BME280;48102;47.526;19.072;2023-02-13T15:39:43;102367.75;;;8.41;70.10
62111;BME280;48102;47.526;19.072;2023-02-13T15:42:47;102365.25;;;8.19;74.84
62111;BME280;48102;47.526;19.072;2023-02-13T15:45:50;102360.28;;;7.76;78.01
62111;BME280;48102;47.526;19.072;2023-02-13T15:48:54;102355.28;;;7.29;85.58
62111;BME280;48102;47.526;19.072;2023-02-13T15:52:07;102356.25;;;6.94;88.78
62111;BME280;48102;47.526;19.072;2023-02-13T15:55:26;102351.94;;;6.78;90.99
62111;BME280;48102;47.526;19.072;2023-02-13T15:58:31;102351.94;;;6.69;93.62
62111;BME280;48102;47.526;19.072;2023-02-13T16:01:35;102354.59;;;6.61;95.19
62111;BME280;48102;47.526;19.072;2023-02-13T16:04:41;102351.97;;;6.66;94.50
62111;BME280;48102;47.526;19.072;2023-02-13T16:07:45;102352.84;;;6.63;96.18
62111;BME280;48102;47.526;19.072;2023-02-13T16:10:48;102360.69;;;6.60;96.48
62111;BME280;48102;47.526;19.072;2023-02-13T16:17:06;102358.97;;;6.33;98.57
62111;BME280;48102;47.526;19.072;2023-02-13T16:20:26;102365.03;;;6.03;100.00
62111;BME280;48102;47.526;19.072;2023-02-13T16:23:30;102361.50;;;5.79;100.00
62111;BME280;48102;47.526;19.072;2023-02-13T16:26:34;102369.28;;;5.63;100.00
62111;BME280;48102;47.526;19.072;2023-02-13T16:29:45;102358.75;;;5.47;100.00
62111;BME280;48102;47.526;19.072;2023-02-13T16:32:50;102363.00;;;5.21;100.00
62111;BME280;48102;47.526;19.072;2023-02-13T16:35:59;102351.59;;;5.03;100.00
62111;BME280;48102;47.526;19.072;2023-02-13T16:39:35;102346.31;;;4.96;100.00
62111;BME280;48102;47.526;19.072;2023-02-13T16:42:38;102352.31;;;4.75;100.00
62111;BME280;48102;47.526;19.072;2023-02-13T16:45:41;102359.19;;;4.64;100.00
62111;BME280;48102;47.526;19.072;2023-02-13T16:52:17;102345.84;;;4.27;100.00
62111;BME280;48102;47.526;19.072;2023-02-13T16:55:21;102363.34;;;4.39;100.00
62111;BME280;48102;47.526;19.072;2023-02-13T16:58:25;102353.84;;;4.47;100.00
62111;BME280;48102;47.526;19.072;2023-02-13T17:01:29;102365.25;;;4.60;100.00
62111;BME280;48102;47.526;19.072;2023-02-13T17:04:32;102357.50;;;4.72;100.00
